FQPB

Pemba Airport

Pemba / Porto Amelia, Mozambique
METAR FQPB 220500Z 23008KT 9999 FEW020 24/21 Q1013
Observed Flight Rules
Apr-22 @ 05:00 UTC (2 hours ago) Visual Flight Rules
Wind Visibility Clouds
230° at 8 knots 10,000+ meters
  • Few at 2,000' AGL
Temperatures Readings
Current 24°C / 75°F
Dewpoint 21°C / 70°F
Humidity 83%
Altimeter 29.91" Hg
Pressure 1013 hPa
Elevation 50
METAR FQPB 220500Z 23008KT 9999 FEW020 24/21 Q1013
Observed Flight Rules
Apr-22 @ 05:00 UTC
(2 hours ago)
VFR
Wind Visibility
230° at 8 knots 10,000+ meters
Clouds
  • Few at 2,000' AGL
Temperature Dewpoint
24°C / 75°F 21°C / 70°F
Humidity Altimeter Pressure
83% 29.91" Hg 1013 hPa